Time;durP1;ratioP1;P1;durP2;ratioP2;P2;SDS_P1;SDS_P2;PMS_P1;PMS_P2;Temp;Humidity;BMP_temperature;BMP_pressure;BME280_temperature;BME280_humidity;BME280_pressure;Samples;Min_cycle;Max_cycle;Signal;HPM_P1;HPM_P2
2021/07/03 00:00:52;;;;;;;0.80;0.80;;;18.80;76.60;;;;;;5067630;28;20266;-72
2021/07/03 00:03:18;;;;;;;0.82;0.82;;;18.80;76.40;;;;;;5065066;28;20183;-72
2021/07/03 00:05:43;;;;;;;0.95;0.95;;;18.80;77.20;;;;;;5068076;28;20558;-73
2021/07/03 00:08:09;;;;;;;1.35;0.80;;;18.80;76.80;;;;;;5065936;28;20240;-73
2021/07/03 00:10:35;;;;;;;0.80;0.80;;;18.70;77.10;;;;;;5069163;28;20219;-73
2021/07/03 00:13:01;;;;;;;0.70;0.70;;;18.70;77.30;;;;;;5067064;28;20179;-73
2021/07/03 00:15:27;;;;;;;0.85;0.85;;;18.60;77.70;;;;;;5067174;28;20747;-73
2021/07/03 00:17:57;;;;;;;0.75;0.75;;;18.60;77.70;;;;;;5064042;28;20198;-73
2021/07/03 00:20:24;;;;;;;0.65;0.65;;;18.60;77.00;;;;;;5074376;28;20637;-73
2021/07/03 00:22:51;;;;;;;0.63;0.63;;;18.60;77.50;;;;;;5066420;28;20189;-73
2021/07/03 00:25:17;;;;;;;0.80;0.80;;;18.60;77.30;;;;;;5065363;28;20274;-72
2021/07/03 00:27:43;;;;;;;0.75;0.75;;;18.60;77.70;;;;;;5065626;28;20262;-73
2021/07/03 00:30:11;;;;;;;0.80;0.80;;;18.60;77.70;;;;;;5067129;28;20232;-71
2021/07/03 00:32:37;;;;;;;0.90;0.90;;;18.50;77.90;;;;;;5066453;28;20206;-73
2021/07/03 00:35:05;;;;;;;0.80;0.80;;;18.50;77.70;;;;;;5067303;28;20215;-73
2021/07/03 00:37:30;;;;;;;0.70;0.70;;;18.50;77.60;;;;;;5078929;28;20186;-73
2021/07/03 00:39:56;;;;;;;0.73;0.73;;;18.50;77.90;;;;;;5064376;28;20251;-73
2021/07/03 00:42:22;;;;;;;0.60;0.60;;;18.50;77.70;;;;;;5066661;28;20648;-73
2021/07/03 00:44:48;;;;;;;0.80;0.80;;;18.50;78.20;;;;;;5065689;28;20215;-73
2021/07/03 00:47:14;;;;;;;0.60;0.60;;;18.50;77.90;;;;;;5065862;28;20210;-73
2021/07/03 00:49:40;;;;;;;0.80;0.80;;;18.40;78.30;;;;;;5064946;28;20237;-72
2021/07/03 00:52:08;;;;;;;0.60;0.60;;;18.40;78.30;;;;;;5066430;28;20309;-72
2021/07/03 00:54:36;;;;;;;0.70;0.70;;;18.40;78.50;;;;;;5064425;28;20844;-72
2021/07/03 00:57:04;;;;;;;0.60;0.60;;;18.40;78.30;;;;;;5065816;28;20195;-72
2021/07/03 00:59:37;;;;;;;0.50;0.50;;;18.40;78.10;;;;;;5066639;28;20244;-72
2021/07/03 01:02:04;;;;;;;0.60;0.60;;;18.40;78.20;;;;;;5065541;28;20183;-72
2021/07/03 01:04:30;;;;;;;0.55;0.55;;;18.40;78.60;;;;;;5066945;28;20232;-72
2021/07/03 01:06:57;;;;;;;0.50;0.50;;;18.40;79.10;;;;;;5066512;28;20580;-72
2021/07/03 01:09:23;;;;;;;0.50;0.50;;;18.40;78.50;;;;;;5067128;28;20285;-72
2021/07/03 01:11:50;;;;;;;0.60;0.60;;;18.30;78.70;;;;;;5065651;28;20187;-72
2021/07/03 01:14:16;;;;;;;0.57;0.57;;;18.30;79.10;;;;;;5062828;28;20191;-72
2021/07/03 01:16:46;;;;;;;0.50;0.50;;;18.20;78.80;;;;;;5065104;28;20182;-72
2021/07/03 01:19:12;;;;;;;1.38;0.65;;;18.20;79.10;;;;;;5056965;28;20267;-72
2021/07/03 01:21:38;;;;;;;0.70;0.70;;;18.20;78.80;;;;;;5073208;28;20735;-72
2021/07/03 01:24:04;;;;;;;1.85;0.73;;;18.20;79.40;;;;;;5066939;28;20181;-73
2021/07/03 01:26:44;;;;;;;0.60;0.60;;;18.10;79.40;;;;;;5066119;28;20656;-72
2021/07/03 01:29:10;;;;;;;0.80;0.80;;;18.20;79.10;;;;;;5064942;28;20711;-72
2021/07/03 01:31:40;;;;;;;0.60;0.60;;;18.10;79.70;;;;;;5066166;28;20189;-72
2021/07/03 01:34:06;;;;;;;0.60;0.60;;;18.10;79.60;;;;;;5065109;28;20170;-72
2021/07/03 01:36:32;;;;;;;0.60;0.60;;;18.10;79.30;;;;;;5065682;28;20676;-71
2021/07/03 01:38:59;;;;;;;0.68;0.52;;;18.10;79.80;;;;;;5068967;28;20210;-72
2021/07/03 01:41:24;;;;;;;0.55;0.55;;;18.00;79.60;;;;;;5069672;28;20187;-72
2021/07/03 01:43:50;;;;;;;0.50;0.50;;;18.00;79.60;;;;;;5068660;28;20237;-72
2021/07/03 01:46:15;;;;;;;0.70;0.70;;;18.00;79.70;;;;;;5063153;28;20185;-72
2021/07/03 01:48:41;;;;;;;0.52;0.52;;;18.00;79.60;;;;;;5069494;28;20191;-72
2021/07/03 01:51:07;;;;;;;0.50;0.50;;;18.00;79.80;;;;;;5069755;28;20260;-72
2021/07/03 01:53:32;;;;;;;0.68;0.68;;;18.00;79.20;;;;;;5068439;28;20570;-72
2021/07/03 01:55:58;;;;;;;0.40;0.40;;;17.90;78.80;;;;;;5070575;28;20183;-72
2021/07/03 01:58:26;;;;;;;0.60;0.60;;;17.90;78.40;;;;;;5069448;28;20558;-72
2021/07/03 02:00:56;;;;;;;0.50;0.50;;;17.90;78.40;;;;;;5060698;28;20187;-72
2021/07/03 02:03:22;;;;;;;0.50;0.50;;;17.90;78.30;;;;;;5070301;28;20597;-72
2021/07/03 02:05:49;;;;;;;0.47;0.40;;;17.90;78.10;;;;;;5068869;28;20187;-72
2021/07/03 02:08:15;;;;;;;0.40;0.40;;;17.80;78.10;;;;;;5070141;28;20769;-72
2021/07/03 02:10:41;;;;;;;0.43;0.43;;;17.80;77.70;;;;;;5067212;28;20727;-72
2021/07/03 02:13:07;;;;;;;0.30;0.30;;;17.90;77.80;;;;;;5068796;28;20210;-71
2021/07/03 02:15:32;;;;;;;0.50;0.50;;;17.90;77.70;;;;;;5069303;28;20201;-72
2021/07/03 02:17:59;;;;;;;0.30;0.30;;;17.90;77.20;;;;;;5068370;28;20237;-71
2021/07/03 02:20:24;;;;;;;0.50;0.50;;;17.90;77.60;;;;;;5067842;28;20186;-72
2021/07/03 02:22:51;;;;;;;0.50;0.50;;;17.90;77.60;;;;;;5070108;28;20175;-71
2021/07/03 02:25:17;;;;;;;2.72;0.50;;;17.80;77.60;;;;;;5070035;28;20256;-71
2021/07/03 02:27:42;;;;;;;1.85;0.60;;;17.80;77.60;;;;;;5068164;28;20190;-72
2021/07/03 02:30:14;;;;;;;2.97;0.45;;;17.80;78.00;;;;;;5068873;28;20219;-71
2021/07/03 02:32:40;;;;;;;0.52;0.40;;;17.80;77.30;;;;;;5066128;28;20670;-71
2021/07/03 02:35:07;;;;;;;0.40;0.40;;;17.80;77.90;;;;;;5067906;28;20659;-73
2021/07/03 02:37:33;;;;;;;0.35;0.35;;;17.80;77.70;;;;;;5069759;28;20171;-72
2021/07/03 02:39:59;;;;;;;3.65;0.55;;;17.80;78.10;;;;;;5068621;28;20187;-73
2021/07/03 02:42:25;;;;;;;0.30;0.30;;;17.70;78.10;;;;;;5066545;28;20183;-73
2021/07/03 02:44:50;;;;;;;0.60;0.60;;;17.70;78.40;;;;;;5068862;28;20209;-72
2021/07/03 02:47:16;;;;;;;0.40;0.40;;;17.70;78.50;;;;;;5069458;28;20719;-72
2021/07/03 02:49:42;;;;;;;0.40;0.40;;;17.70;78.50;;;;;;5067431;28;20836;-72
2021/07/03 02:52:07;;;;;;;0.40;0.40;;;17.70;78.70;;;;;;5069565;28;20586;-72
2021/07/03 02:54:33;;;;;;;0.57;0.57;;;17.70;78.60;;;;;;5067134;28;20179;-73
2021/07/03 02:56:59;;;;;;;0.50;0.50;;;17.70;78.20;;;;;;5069033;28;20214;-73
2021/07/03 02:59:25;;;;;;;0.95;0.60;;;17.70;78.30;;;;;;5068921;28;20917;-73
2021/07/03 03:01:52;;;;;;;0.50;0.50;;;17.70;78.60;;;;;;5068938;28;20189;-73
2021/07/03 03:04:18;;;;;;;7.10;0.50;;;17.70;78.50;;;;;;5069110;28;20182;-73
2021/07/03 03:06:44;;;;;;;0.35;0.35;;;17.60;78.70;;;;;;5067406;28;20194;-72
2021/07/03 03:09:10;;;;;;;3.50;0.60;;;17.70;78.80;;;;;;5069184;28;20175;-73
2021/07/03 03:11:36;;;;;;;0.47;0.40;;;17.70;78.80;;;;;;5065059;28;20206;-73
2021/07/03 03:14:02;;;;;;;0.50;0.50;;;17.60;78.30;;;;;;5062417;28;20234;-73
2021/07/03 03:16:29;;;;;;;0.40;0.40;;;17.70;78.70;;;;;;5068913;28;20285;-72
2021/07/03 03:18:55;;;;;;;0.40;0.40;;;17.60;78.70;;;;;;5067144;28;20183;-73
2021/07/03 03:21:21;;;;;;;0.50;0.50;;;17.60;78.90;;;;;;5067726;28;20207;-73
2021/07/03 03:23:47;;;;;;;0.50;0.50;;;17.60;78.50;;;;;;5065134;28;20688;-72
2021/07/03 03:26:13;;;;;;;0.52;0.52;;;17.60;79.10;;;;;;5067850;28;20175;-73
2021/07/03 03:28:39;;;;;;;0.50;0.50;;;17.60;79.40;;;;;;5067989;28;20183;-73
2021/07/03 03:31:04;;;;;;;0.60;0.60;;;17.70;79.00;;;;;;5067705;28;20219;-73
2021/07/03 03:33:30;;;;;;;0.52;0.52;;;17.70;79.30;;;;;;5066536;28;20182;-73
2021/07/03 03:35:56;;;;;;;0.88;0.43;;;17.70;78.60;;;;;;5068625;28;20171;-72
2021/07/03 03:38:22;;;;;;;0.47;0.47;;;17.80;79.00;;;;;;5068398;28;20186;-73
2021/07/03 03:40:48;;;;;;;0.43;0.43;;;17.90;78.40;;;;;;5068265;28;20183;-72
2021/07/03 03:43:14;;;;;;;0.50;0.50;;;17.90;78.80;;;;;;5066166;28;20659;-72
2021/07/03 03:45:39;;;;;;;0.57;0.57;;;17.90;78.80;;;;;;5068372;28;20178;-72
2021/07/03 03:48:06;;;;;;;0.88;0.88;;;18.00;78.70;;;;;;5067709;28;20575;-73
2021/07/03 03:50:34;;;;;;;0.68;0.68;;;18.00;78.80;;;;;;5066741;28;20241;-72
2021/07/03 03:53:01;;;;;;;0.60;0.60;;;18.10;78.40;;;;;;5067511;28;20924;-72
2021/07/03 03:55:28;;;;;;;0.50;0.50;;;18.20;78.30;;;;;;5066702;28;20900;-72
2021/07/03 03:57:53;;;;;;;0.60;0.60;;;18.20;77.80;;;;;;5066381;28;20178;-72
2021/07/03 04:00:20;;;;;;;2.88;0.88;;;18.30;78.30;;;;;;5066036;28;20255;-72
2021/07/03 04:02:46;;;;;;;0.50;0.50;;;18.30;78.20;;;;;;5066731;28;20194;-72
2021/07/03 04:05:12;;;;;;;0.68;0.68;;;18.30;78.40;;;;;;5067791;28;20171;-73
2021/07/03 04:07:38;;;;;;;1.80;0.60;;;18.40;78.10;;;;;;5074046;28;20183;-72
2021/07/03 04:10:05;;;;;;;0.52;0.52;;;18.40;78.10;;;;;;5067747;28;20232;-72
2021/07/03 04:12:31;;;;;;;3.85;0.70;;;18.40;78.50;;;;;;5062839;28;21740;-72
2021/07/03 04:14:57;;;;;;;0.60;0.60;;;18.40;78.70;;;;;;5064695;28;20315;-73
2021/07/03 04:17:22;;;;;;;0.70;0.70;;;18.40;78.70;;;;;;5065315;28;20178;-73
2021/07/03 04:19:48;;;;;;;0.73;0.70;;;18.40;78.70;;;;;;5061758;28;20659;-72
2021/07/03 04:22:14;;;;;;;2.15;0.70;;;18.40;79.00;;;;;;5064757;28;20182;-73
2021/07/03 04:24:40;;;;;;;1.50;0.60;;;18.40;79.00;;;;;;5066526;28;20947;-72
2021/07/03 04:27:06;;;;;;;2.85;0.65;;;18.40;78.50;;;;;;5067317;28;20186;-71
2021/07/03 04:29:31;;;;;;;1.75;0.77;;;18.40;78.60;;;;;;5067643;28;20207;-72
2021/07/03 04:31:58;;;;;;;0.85;0.80;;;18.40;78.70;;;;;;5061197;28;20191;-73
2021/07/03 04:34:23;;;;;;;0.70;0.70;;;18.50;77.90;;;;;;5067649;28;20867;-72
2021/07/03 04:36:49;;;;;;;0.85;0.85;;;18.60;78.10;;;;;;5066445;28;20179;-72
2021/07/03 04:39:15;;;;;;;0.77;0.70;;;18.60;78.00;;;;;;5066187;28;20179;-72
2021/07/03 04:41:40;;;;;;;3.05;0.88;;;18.70;77.80;;;;;;5061801;28;20187;-72
2021/07/03 04:44:06;;;;;;;2.08;0.60;;;18.80;77.80;;;;;;5061666;28;20182;-72
2021/07/03 04:46:33;;;;;;;0.77;0.77;;;18.80;77.70;;;;;;5065419;28;20273;-72
2021/07/03 04:49:00;;;;;;;0.90;0.90;;;18.90;77.50;;;;;;5065420;28;20267;-71
2021/07/03 04:51:25;;;;;;;0.60;0.60;;;19.00;77.20;;;;;;5062713;28;20738;-71
2021/07/03 04:53:51;;;;;;;4.40;0.88;;;19.00;76.90;;;;;;5061542;28;20184;-71
2021/07/03 04:56:17;;;;;;;0.80;0.80;;;19.10;76.50;;;;;;5062422;28;20171;-71
2021/07/03 04:58:44;;;;;;;0.75;0.75;;;19.10;76.50;;;;;;5084969;28;20724;-71
2021/07/03 05:01:10;;;;;;;0.90;0.90;;;19.20;76.80;;;;;;5065952;28;20284;-71
2021/07/03 05:03:36;;;;;;;0.80;0.80;;;19.20;76.50;;;;;;5064670;28;20186;-72
2021/07/03 05:06:02;;;;;;;3.40;1.10;;;19.20;76.50;;;;;;5064284;28;20186;-72
2021/07/03 05:08:27;;;;;;;2.55;1.10;;;19.20;76.30;;;;;;5066715;28;20628;-71
2021/07/03 05:10:53;;;;;;;2.63;1.20;;;19.30;76.60;;;;;;5064577;28;20622;-73
2021/07/03 05:13:19;;;;;;;1.00;1.00;;;19.30;75.90;;;;;;5064608;28;20319;-71
2021/07/03 05:15:44;;;;;;;0.98;0.98;;;19.40;75.80;;;;;;5068665;28;20201;-71
2021/07/03 05:18:10;;;;;;;1.40;1.00;;;19.50;75.70;;;;;;5069649;28;20187;-72
2021/07/03 05:20:36;;;;;;;1.08;0.98;;;19.60;75.60;;;;;;5068597;28;20187;-72
2021/07/03 05:23:02;;;;;;;1.15;1.15;;;19.50;75.00;;;;;;5068190;28;20188;-72
2021/07/03 05:25:28;;;;;;;1.75;1.27;;;19.60;75.10;;;;;;5080271;28;20182;-71
2021/07/03 05:27:53;;;;;;;1.42;1.00;;;19.50;75.30;;;;;;5071146;28;20179;-72
2021/07/03 05:30:19;;;;;;;0.98;0.98;;;19.40;75.10;;;;;;5067811;28;20219;-72
2021/07/03 05:32:45;;;;;;;1.10;1.10;;;19.30;75.10;;;;;;5066601;28;20179;-72
2021/07/03 05:35:12;;;;;;;1.40;1.40;;;19.30;75.00;;;;;;5064833;28;20237;-72
2021/07/03 05:37:38;;;;;;;1.85;1.20;;;19.30;75.30;;;;;;5085605;28;20187;-72
2021/07/03 05:40:05;;;;;;;3.15;1.35;;;19.30;74.90;;;;;;5068921;28;20243;-73
2021/07/03 05:42:30;;;;;;;1.10;1.00;;;19.30;75.00;;;;;;5066681;28;20182;-72
2021/07/03 05:44:56;;;;;;;1.25;1.25;;;19.30;75.00;;;;;;5068928;28;20174;-73
2021/07/03 05:47:22;;;;;;;1.20;1.10;;;19.30;75.10;;;;;;5068781;28;20181;-74
2021/07/03 05:49:48;;;;;;;1.25;1.20;;;19.40;74.70;;;;;;5065987;28;20654;-74
2021/07/03 05:52:14;;;;;;;1.05;1.05;;;19.40;74.90;;;;;;5074787;28;20182;-74
2021/07/03 05:54:39;;;;;;;0.93;0.93;;;19.40;74.70;;;;;;5061929;28;20267;-74
2021/07/03 05:57:05;;;;;;;1.20;1.20;;;19.50;75.10;;;;;;5059517;28;20617;-75
2021/07/03 05:59:31;;;;;;;0.80;0.80;;;19.50;74.70;;;;;;5070556;28;20312;-75
2021/07/03 06:01:56;;;;;;;1.65;0.80;;;19.50;74.50;;;;;;5066270;28;20190;-74
2021/07/03 06:04:22;;;;;;;1.00;1.00;;;19.40;74.50;;;;;;5066665;28;20186;-75
2021/07/03 06:06:48;;;;;;;1.10;1.10;;;19.50;74.40;;;;;;5063561;28;20190;-75
2021/07/03 06:09:14;;;;;;;5.50;1.17;;;19.50;74.50;;;;;;5064895;28;20191;-75
2021/07/03 06:11:40;;;;;;;2.15;1.02;;;19.50;75.00;;;;;;5062483;28;20195;-74
2021/07/03 06:14:05;;;;;;;1.20;1.20;;;19.50;75.00;;;;;;5060524;28;20191;-74
2021/07/03 06:16:34;;;;;;;1.60;1.50;;;19.40;75.10;;;;;;5070720;28;20190;-75
2021/07/03 06:19:01;;;;;;;1.05;1.05;;;19.40;75.30;;;;;;5067037;28;20187;-74
2021/07/03 06:21:27;;;;;;;1.30;1.20;;;19.40;75.30;;;;;;5062621;28;20187;-73
2021/07/03 06:23:53;;;;;;;1.48;1.10;;;19.40;75.30;;;;;;5067713;28;20187;-72
2021/07/03 06:26:19;;;;;;;1.52;1.52;;;19.50;74.80;;;;;;5068249;28;20205;-73
2021/07/03 06:28:45;;;;;;;1.40;1.40;;;19.60;74.70;;;;;;5068258;28;20183;-73
2021/07/03 06:31:10;;;;;;;1.30;1.30;;;19.60;75.10;;;;;;5067733;28;20223;-74
2021/07/03 06:33:36;;;;;;;1.10;1.10;;;19.60;75.20;;;;;;5067973;28;20668;-74
2021/07/03 06:36:02;;;;;;;1.45;1.42;;;19.70;75.10;;;;;;5065385;28;20877;-74
2021/07/03 06:38:28;;;;;;;2.35;1.30;;;19.70;74.90;;;;;;5064988;28;20252;-74
2021/07/03 06:40:54;;;;;;;1.08;1.08;;;19.70;75.00;;;;;;5066429;28;20557;-74
2021/07/03 06:43:19;;;;;;;2.25;1.35;;;19.70;74.80;;;;;;5064168;28;20185;-73
2021/07/03 06:45:45;;;;;;;1.70;1.08;;;19.80;74.70;;;;;;5065497;28;20741;-73
2021/07/03 06:48:11;;;;;;;1.65;1.30;;;19.80;74.90;;;;;;5061717;28;20202;-74
2021/07/03 06:50:36;;;;;;;1.35;1.35;;;19.90;74.60;;;;;;5061022;28;20260;-74
2021/07/03 06:53:02;;;;;;;2.28;1.45;;;20.00;74.80;;;;;;5067158;28;20175;-73
2021/07/03 06:55:28;;;;;;;1.00;1.00;;;20.00;74.40;;;;;;5064671;28;20182;-75
2021/07/03 06:57:54;;;;;;;5.32;1.17;;;20.00;73.40;;;;;;5060960;28;20273;-74
2021/07/03 07:00:20;;;;;;;5.40;1.55;;;20.10;73.50;;;;;;5069182;28;20182;-74
2021/07/03 07:02:46;;;;;;;3.10;1.23;;;20.10;73.70;;;;;;5073078;28;20556;-74
2021/07/03 07:05:11;;;;;;;1.95;1.38;;;20.10;73.70;;;;;;5070307;28;20714;-74
2021/07/03 07:07:37;;;;;;;1.33;1.33;;;20.20;73.70;;;;;;5077075;28;20185;-74
2021/07/03 07:10:04;;;;;;;1.55;1.33;;;20.20;73.80;;;;;;5073365;28;20221;-74
2021/07/03 07:12:30;;;;;;;1.67;1.30;;;20.30;73.60;;;;;;5071387;28;20599;-74
2021/07/03 07:14:56;;;;;;;1.35;1.25;;;20.30;73.50;;;;;;5071331;28;20285;-72
2021/07/03 07:17:23;;;;;;;2.38;1.50;;;20.30;73.50;;;;;;5074271;28;20328;-72
2021/07/03 07:19:48;;;;;;;1.10;1.10;;;20.30;73.40;;;;;;5071301;28;20644;-73
2021/07/03 07:22:14;;;;;;;1.23;1.23;;;20.30;73.30;;;;;;5069754;28;20800;-71
2021/07/03 07:24:41;;;;;;;1.30;1.30;;;20.30;73.30;;;;;;5070698;28;20194;-71
2021/07/03 07:27:07;;;;;;;1.55;1.48;;;20.20;73.00;;;;;;5077393;28;20574;-71
2021/07/03 07:29:33;;;;;;;1.20;1.20;;;20.20;73.20;;;;;;5072275;28;20171;-69
2021/07/03 07:31:58;;;;;;;1.70;1.20;;;20.10;73.40;;;;;;5070896;28;20186;-70
2021/07/03 07:34:24;;;;;;;1.35;1.35;;;20.20;73.90;;;;;;5078513;28;20257;-70
2021/07/03 07:36:50;;;;;;;1.33;1.33;;;20.30;73.20;;;;;;5071194;28;20660;-69
2021/07/03 07:39:16;;;;;;;1.17;1.17;;;20.40;73.00;;;;;;5073495;28;20580;-70
2021/07/03 07:41:41;;;;;;;1.80;1.33;;;20.50;73.00;;;;;;5074715;28;20178;-69
2021/07/03 07:44:07;;;;;;;2.92;1.42;;;20.60;72.70;;;;;;5075874;28;20187;-69
2021/07/03 07:46:33;;;;;;;4.85;1.65;;;20.70;72.40;;;;;;5073633;28;20271;-68
2021/07/03 07:48:59;;;;;;;1.30;1.30;;;20.70;72.10;;;;;;5074168;28;20283;-68
2021/07/03 07:51:26;;;;;;;1.40;1.30;;;20.80;71.70;;;;;;5074746;28;20206;-69
2021/07/03 07:53:51;;;;;;;1.67;1.35;;;20.90;71.70;;;;;;5074517;28;20197;-70
2021/07/03 07:56:19;;;;;;;1.15;1.05;;;21.00;71.80;;;;;;5075077;28;20660;-70
2021/07/03 07:58:48;;;;;;;1.30;1.30;;;21.00;71.50;;;;;;5089337;28;20191;-69
2021/07/03 08:01:14;;;;;;;1.02;1.02;;;21.20;71.20;;;;;;5072292;28;20178;-69
2021/07/03 08:03:43;;;;;;;0.88;0.88;;;21.20;70.20;;;;;;5071127;28;20391;-70
2021/07/03 08:06:09;;;;;;;1.05;1.00;;;21.20;69.90;;;;;;5070437;28;20191;-69
2021/07/03 08:08:35;;;;;;;3.42;1.17;;;21.30;70.00;;;;;;5073658;28;20621;-70
2021/07/03 08:11:01;;;;;;;1.00;0.90;;;21.30;69.80;;;;;;5071060;28;20704;-70
2021/07/03 08:13:27;;;;;;;2.83;0.85;;;21.20;69.70;;;;;;5075689;28;20178;-70
2021/07/03 08:15:53;;;;;;;1.17;1.17;;;21.20;69.90;;;;;;5075944;28;20230;-70
2021/07/03 08:18:20;;;;;;;1.08;1.08;;;21.10;70.40;;;;;;5070194;28;20182;-70
2021/07/03 08:20:46;;;;;;;0.93;0.93;;;20.90;70.80;;;;;;5073417;28;20198;-70
2021/07/03 08:23:12;;;;;;;0.90;0.90;;;20.90;71.10;;;;;;5072371;28;20228;-69
2021/07/03 08:25:38;;;;;;;0.82;0.82;;;20.90;71.20;;;;;;5071895;28;20608;-69
2021/07/03 08:28:04;;;;;;;1.30;1.10;;;21.00;71.20;;;;;;5070845;28;20189;-70
2021/07/03 08:30:31;;;;;;;1.10;1.10;;;21.00;71.50;;;;;;5073655;28;20302;-69
2021/07/03 08:32:57;;;;;;;2.45;1.23;;;21.00;71.10;;;;;;5067235;28;20303;-70
2021/07/03 08:35:23;;;;;;;1.08;1.08;;;21.10;71.20;;;;;;5063035;28;21321;-70
2021/07/03 08:37:49;;;;;;;1.15;1.15;;;21.20;71.00;;;;;;5073090;28;20279;-70
2021/07/03 08:40:15;;;;;;;1.23;1.20;;;21.20;70.70;;;;;;5063066;28;20186;-70
2021/07/03 08:42:42;;;;;;;1.48;1.38;;;21.20;71.10;;;;;;5062907;28;20805;-70
2021/07/03 08:45:09;;;;;;;5.13;0.93;;;21.10;71.30;;;;;;5057846;28;20351;-70
2021/07/03 08:47:38;;;;;;;1.50;0.90;;;21.20;71.40;;;;;;5061775;28;20254;-70
2021/07/03 08:50:05;;;;;;;1.23;1.20;;;21.30;71.00;;;;;;5063751;28;20261;-70
2021/07/03 08:52:31;;;;;;;1.45;1.45;;;21.40;70.50;;;;;;5064438;28;20250;-69
2021/07/03 08:55:06;;;;;;;1.40;1.30;;;21.50;70.30;;;;;;5059819;28;20784;-71
2021/07/03 08:57:41;;;;;;;1.30;1.10;;;21.60;70.20;;;;;;5070942;28;20619;-71
2021/07/03 09:00:07;;;;;;;2.35;1.67;;;21.60;70.10;;;;;;5070593;28;20211;-71
2021/07/03 09:02:35;;;;;;;1.00;1.00;;;21.60;70.20;;;;;;5066837;28;20201;-72
2021/07/03 09:05:01;;;;;;;1.05;1.05;;;21.70;68.90;;;;;;5064315;28;20279;-72
2021/07/03 09:07:35;;;;;;;1.30;1.30;;;21.70;69.30;;;;;;5060784;28;20179;-72
2021/07/03 09:10:01;;;;;;;3.80;1.17;;;21.80;69.60;;;;;;5067254;28;20241;-72
2021/07/03 09:12:33;;;;;;;2.55;1.33;;;21.80;69.70;;;;;;5061830;28;20758;-73
2021/07/03 09:15:18;;;;;;;1.50;1.50;;;21.90;69.70;;;;;;5064802;28;20194;-72
2021/07/03 09:17:47;;;;;;;1.50;1.50;;;22.10;69.30;;;;;;5065204;28;20731;-72
2021/07/03 09:20:13;;;;;;;1.27;1.27;;;22.30;68.80;;;;;;5066446;28;20179;-71
2021/07/03 09:22:39;;;;;;;1.30;1.30;;;22.20;68.70;;;;;;5063810;28;20182;-72
2021/07/03 09:25:23;;;;;;;2.05;1.95;;;22.20;68.70;;;;;;5065276;28;20240;-72
2021/07/03 09:27:48;;;;;;;1.88;1.70;;;22.20;69.10;;;;;;5063404;28;20186;-74
2021/07/03 09:30:22;;;;;;;2.20;2.10;;;22.20;68.90;;;;;;5065419;28;20211;-71
2021/07/03 09:32:52;;;;;;;1.95;1.85;;;22.20;68.90;;;;;;5064337;28;20591;-72
2021/07/03 09:35:19;;;;;;;2.08;2.08;;;22.30;68.80;;;;;;5066807;28;20202;-73
2021/07/03 09:37:45;;;;;;;1.77;1.77;;;22.50;68.50;;;;;;5067547;28;20195;-73
2021/07/03 09:40:11;;;;;;;1.58;1.58;;;22.50;67.20;;;;;;5066696;28;20680;-74
2021/07/03 09:42:39;;;;;;;1.58;1.58;;;22.50;67.00;;;;;;5065874;28;20185;-73
2021/07/03 09:45:07;;;;;;;1.95;1.95;;;22.50;67.10;;;;;;5064331;28;20221;-72
2021/07/03 09:47:33;;;;;;;2.00;2.00;;;22.50;67.40;;;;;;5068244;28;20179;-72
2021/07/03 09:50:05;;;;;;;1.95;1.95;;;22.60;66.80;;;;;;5069292;28;20211;-72
2021/07/03 09:52:32;;;;;;;2.58;2.58;;;22.70;66.80;;;;;;5060817;28;20183;-72
2021/07/03 09:54:58;;;;;;;2.30;2.20;;;22.90;66.00;;;;;;5063596;28;20183;-72
2021/07/03 09:57:24;;;;;;;2.55;2.50;;;22.90;66.00;;;;;;5065663;28;20567;-72
2021/07/03 09:59:51;;;;;;;4.43;1.92;;;23.00;66.50;;;;;;5067433;28;20448;-71
2021/07/03 10:02:16;;;;;;;2.40;2.40;;;22.90;66.30;;;;;;5068487;28;20188;-72
2021/07/03 10:04:42;;;;;;;2.53;2.53;;;23.00;66.90;;;;;;5063877;28;20198;-71
2021/07/03 10:07:16;;;;;;;2.95;2.80;;;23.20;66.30;;;;;;5067333;28;20250;-71
2021/07/03 10:09:48;;;;;;;2.85;2.75;;;23.40;65.60;;;;;;5067177;28;20242;-71
2021/07/03 10:12:24;;;;;;;2.80;2.78;;;23.50;65.80;;;;;;5072111;28;20191;-71
2021/07/03 10:14:50;;;;;;;2.97;2.88;;;23.60;65.00;;;;;;5060614;28;20203;-72
2021/07/03 10:17:34;;;;;;;2.75;2.65;;;23.70;65.20;;;;;;5064401;28;20183;-72
2021/07/03 10:20:02;;;;;;;3.17;3.08;;;23.90;64.50;;;;;;5065884;28;20187;-72
2021/07/03 10:22:31;;;;;;;2.92;2.83;;;24.10;64.10;;;;;;5068599;28;20623;-72
2021/07/03 10:25:16;;;;;;;2.78;2.72;;;24.20;64.10;;;;;;5066179;28;20182;-72
2021/07/03 10:27:53;;;;;;;3.60;3.40;;;24.40;64.00;;;;;;5068824;28;20744;-72
2021/07/03 10:30:30;;;;;;;2.97;2.97;;;24.70;64.00;;;;;;5062273;28;20207;-72
2021/07/03 10:33:07;;;;;;;2.85;2.75;;;25.20;63.20;;;;;;5078191;28;20208;-71
2021/07/03 10:35:50;;;;;;;3.05;2.85;;;25.60;62.70;;;;;;5065284;28;20274;-72
2021/07/03 10:38:16;;;;;;;2.90;2.80;;;26.20;61.50;;;;;;5067300;28;20186;-71
2021/07/03 10:40:42;;;;;;;2.92;2.85;;;26.80;60.50;;;;;;5069193;28;20190;-71
2021/07/03 10:43:11;;;;;;;2.72;2.70;;;27.30;59.40;;;;;;5062778;28;20262;-71
2021/07/03 10:45:49;;;;;;;5.97;3.25;;;27.70;59.30;;;;;;5068124;28;20179;-71
2021/07/03 10:48:19;;;;;;;3.30;3.17;;;27.80;58.50;;;;;;5065983;28;20194;-70
2021/07/03 10:50:45;;;;;;;3.33;2.65;;;27.70;58.20;;;;;;5068920;28;20218;-71
2021/07/03 10:53:25;;;;;;;2.92;2.83;;;27.80;58.10;;;;;;5064276;28;20262;-70
2021/07/03 10:55:51;;;;;;;3.28;3.15;;;28.00;57.10;;;;;;5063286;28;20584;-71
2021/07/03 10:58:26;;;;;;;2.65;2.65;;;28.20;58.00;;;;;;5065432;28;20324;-71
2021/07/03 11:00:52;;;;;;;2.75;2.65;;;28.60;57.70;;;;;;5072289;28;20272;-71
2021/07/03 11:03:23;;;;;;;2.78;2.78;;;29.10;57.00;;;;;;5062223;28;20189;-71
2021/07/03 11:05:49;;;;;;;2.40;2.40;;;29.50;55.70;;;;;;5074267;28;20664;-72
2021/07/03 11:08:16;;;;;;;3.00;2.90;;;29.70;55.80;;;;;;5064917;28;20172;-70
2021/07/03 11:10:42;;;;;;;3.20;3.10;;;29.90;55.40;;;;;;5067366;28;20229;-70
2021/07/03 11:13:22;;;;;;;2.88;2.78;;;30.00;55.10;;;;;;5066689;28;20572;-70
2021/07/03 11:15:48;;;;;;;3.03;3.00;;;30.00;54.70;;;;;;5069207;28;20656;-71
2021/07/03 11:18:14;;;;;;;2.70;2.70;;;30.00;54.70;;;;;;5066701;28;20224;-71
2021/07/03 11:20:40;;;;;;;3.13;2.78;;;30.00;53.50;;;;;;5067924;28;20232;-71
2021/07/03 11:23:07;;;;;;;3.67;3.35;;;29.90;53.20;;;;;;5064949;28;20183;-71
2021/07/03 11:25:45;;;;;;;3.35;3.20;;;29.70;54.10;;;;;;5067849;28;20942;-71
2021/07/03 11:28:12;;;;;;;4.55;2.70;;;29.50;55.80;;;;;;5064666;28;20556;-71
2021/07/03 11:30:40;;;;;;;2.90;2.80;;;29.30;56.10;;;;;;5067418;28;20215;-73
2021/07/03 11:33:07;;;;;;;3.30;3.10;;;29.50;56.20;;;;;;5067573;28;20257;-72
2021/07/03 11:35:34;;;;;;;3.72;3.28;;;29.70;55.30;;;;;;5082969;28;20646;-72
2021/07/03 11:38:03;;;;;;;3.42;3.42;;;29.80;55.50;;;;;;5069886;28;20552;-73
2021/07/03 11:40:31;;;;;;;2.58;2.58;;;29.80;55.10;;;;;;5066927;28;20195;-74
2021/07/03 11:42:59;;;;;;;3.25;3.03;;;29.20;54.70;;;;;;5065897;28;20183;-72
2021/07/03 11:45:30;;;;;;;2.90;2.90;;;29.00;55.10;;;;;;5064848;28;20237;-73
2021/07/03 11:48:10;;;;;;;3.63;3.15;;;29.10;54.50;;;;;;5063459;28;20187;-73
2021/07/03 11:50:42;;;;;;;3.03;2.97;;;29.10;54.20;;;;;;5065719;28;20664;-72
2021/07/03 11:53:09;;;;;;;3.78;3.63;;;29.00;54.50;;;;;;5065765;28;20183;-71
2021/07/03 11:55:47;;;;;;;3.65;3.55;;;29.00;55.50;;;;;;5064505;28;20195;-71
2021/07/03 11:58:24;;;;;;;3.75;3.60;;;29.00;55.30;;;;;;5062444;28;20228;-70
2021/07/03 12:00:55;;;;;;;3.63;3.40;;;29.10;54.60;;;;;;5065989;28;20198;-71
2021/07/03 12:03:32;;;;;;;3.38;3.28;;;28.60;55.70;;;;;;5065646;28;20601;-70
2021/07/03 12:05:59;;;;;;;3.42;3.33;;;28.60;55.90;;;;;;5065308;28;20611;-71
2021/07/03 12:08:43;;;;;;;3.45;3.35;;;28.80;56.30;;;;;;5061252;28;20253;-71
2021/07/03 12:11:11;;;;;;;3.90;3.70;;;28.90;55.90;;;;;;5064769;28;20691;-71
2021/07/03 12:13:45;;;;;;;3.22;3.13;;;28.90;56.60;;;;;;5065066;28;20182;-70
2021/07/03 12:16:12;;;;;;;3.60;3.40;;;29.10;54.80;;;;;;5067666;28;20175;-71
2021/07/03 12:18:40;;;;;;;3.53;3.42;;;29.10;54.60;;;;;;5069923;28;20557;-71
2021/07/03 12:21:08;;;;;;;4.75;4.45;;;29.10;54.80;;;;;;5067688;28;20190;-71
2021/07/03 12:23:35;;;;;;;4.00;3.85;;;29.20;54.30;;;;;;5067361;28;20540;-71
2021/07/03 12:26:03;;;;;;;3.53;3.42;;;29.50;54.30;;;;;;5066750;28;20179;-70
2021/07/03 12:28:30;;;;;;;4.22;4.13;;;29.90;53.70;;;;;;5065875;28;20830;-71
2021/07/03 12:31:10;;;;;;;4.40;4.18;;;30.30;53.70;;;;;;5060178;28;20684;-71
2021/07/03 12:33:37;;;;;;;4.00;3.90;;;30.60;52.50;;;;;;5067231;28;20261;-71
2021/07/03 12:36:03;;;;;;;4.60;4.45;;;30.80;52.90;;;;;;5082518;28;20335;-71
2021/07/03 12:38:29;;;;;;;3.88;3.78;;;31.10;52.80;;;;;;5067291;28;20175;-71
2021/07/03 12:40:56;;;;;;;4.05;3.83;;;31.20;52.10;;;;;;5066940;28;20193;-71
2021/07/03 12:43:32;;;;;;;4.20;4.10;;;31.40;51.80;;;;;;5067175;28;20189;-71
2021/07/03 12:46:04;;;;;;;3.50;3.40;;;31.70;51.20;;;;;;5067226;28;20193;-71
2021/07/03 12:48:36;;;;;;;4.00;3.83;;;32.00;50.60;;;;;;5067121;28;20179;-71